createdAt,value
2022-12-11T00:01:29.788Z,100751.81
2022-12-11T00:03:56.200Z,100758.75
2022-12-11T00:06:23.618Z,100746.09
2022-12-11T00:08:54.614Z,100741.91
2022-12-11T00:11:22.194Z,100748.22
2022-12-11T00:13:48.626Z,100752.03
2022-12-11T00:16:15.401Z,100749.72
2022-12-11T00:18:42.066Z,100737.44
2022-12-11T00:21:13.413Z,100757.09
2022-12-11T00:23:40.589Z,100750.53
2022-12-11T00:26:09.973Z,100747.78
2022-12-11T00:28:36.368Z,100740.59
2022-12-11T00:31:07.071Z,100733.56
2022-12-11T00:33:33.596Z,100729.09
2022-12-11T00:35:59.989Z,100731.25
2022-12-11T00:38:26.660Z,100738.28
2022-12-11T00:40:53.191Z,100731.13
2022-12-11T00:43:19.569Z,100730.06
2022-12-11T00:45:47.361Z,100724.13
2022-12-11T00:48:14.398Z,100727.50
2022-12-11T00:50:41.554Z,100729.81
2022-12-11T00:53:07.958Z,100726.00
2022-12-11T00:55:55.457Z,100726.22
2022-12-11T00:58:22.605Z,100720.09
2022-12-11T01:00:50.431Z,100719.44
2022-12-11T01:03:17.673Z,100717.97
2022-12-11T01:05:54.400Z,100717.97
2022-12-11T01:08:21.047Z,100725.75
2022-12-11T01:10:47.574Z,100715.22
2022-12-11T01:13:14.006Z,100720.31
2022-12-11T01:15:43.817Z,100719.84
2022-12-11T01:18:12.215Z,100716.47
2022-12-11T01:20:40.638Z,100723.03
2022-12-11T01:23:07.026Z,100724.53
2022-12-11T01:25:35.597Z,100723.25
2022-12-11T01:28:01.978Z,100724.31
2022-12-11T01:30:28.415Z,100732.78
2022-12-11T01:32:54.846Z,100734.44
2022-12-11T01:35:21.274Z,100721.97
2022-12-11T01:37:47.736Z,100715.66
2022-12-11T01:40:17.695Z,100724.97
2022-12-11T01:42:44.660Z,100722.22
2022-12-11T01:45:34.637Z,100726.44
2022-12-11T01:48:08.182Z,100732.56
2022-12-11T01:50:39.788Z,100727.09
2022-12-11T01:53:08.765Z,100736.38
2022-12-11T01:55:37.447Z,100740.38
2022-12-11T01:58:04.281Z,100727.53
2022-12-11T02:00:30.690Z,100726.47
2022-12-11T02:02:57.115Z,100723.94
2022-12-11T02:05:23.496Z,100729.00
2022-12-11T02:07:59.898Z,100719.50
2022-12-11T02:10:39.050Z,100723.06
2022-12-11T02:13:17.463Z,100728.78
2022-12-11T02:15:51.421Z,100727.94
2022-12-11T02:18:41.607Z,100727.94
2022-12-11T02:21:23.312Z,100738.50
2022-12-11T02:24:28.272Z,100743.34
2022-12-11T02:27:23.266Z,100748.63
2022-12-11T02:30:07.181Z,100744.88
2022-12-11T02:32:47.689Z,100737.25
2022-12-11T02:35:24.319Z,100730.91
2022-12-11T02:37:57.177Z,100724.16
2022-12-11T02:40:28.049Z,100729.44
2022-12-11T02:42:58.100Z,100728.59
2022-12-11T02:45:27.209Z,100728.38
2022-12-11T02:47:54.885Z,100732.38
2022-12-11T02:50:23.732Z,100728.16
2022-12-11T02:52:53.514Z,100733.47
2022-12-11T02:55:20.466Z,100732.59
2022-12-11T02:58:00.441Z,100728.59
2022-12-11T03:00:26.902Z,100718.88
2022-12-11T03:02:53.452Z,100720.56
2022-12-11T03:05:20.194Z,100720.53
2022-12-11T03:07:46.609Z,100724.34
2022-12-11T03:10:18.648Z,100716.53
2022-12-11T03:12:53.177Z,100720.75
2022-12-11T03:15:23.375Z,100723.28
2022-12-11T03:18:09.997Z,100732.38
2022-12-11T03:20:50.352Z,100730.91
2022-12-11T03:23:41.313Z,100731.94
2022-12-11T03:26:13.381Z,100731.75
2022-12-11T03:28:39.724Z,100730.91
2022-12-11T03:31:11.958Z,100743.81
2022-12-11T03:33:41.839Z,100736.59
2022-12-11T03:36:13.100Z,100735.13
2022-12-11T03:38:49.087Z,100731.53
2022-12-11T03:41:18.635Z,100736.59
2022-12-11T03:43:45.922Z,100733.25
2022-12-11T03:46:15.348Z,100732.59
2022-12-11T03:48:45.475Z,100726.28
2022-12-11T03:51:13.034Z,100724.13
2022-12-11T03:53:39.800Z,100732.38
2022-12-11T03:56:08.917Z,100721.19
2022-12-11T03:58:35.532Z,100733.66
2022-12-11T04:01:01.962Z,100729.84
2022-12-11T04:03:28.529Z,100721.84
2022-12-11T04:05:55.794Z,100719.28
2022-12-11T04:08:23.113Z,100727.75
2022-12-11T04:11:10.187Z,100731.97
2022-12-11T04:13:37.246Z,100734.28
2022-12-11T04:16:04.216Z,100734.50
2022-12-11T04:18:49.015Z,100732.81
2022-12-11T04:21:39.221Z,100728.16
2022-12-11T04:24:15.526Z,100724.13
2022-12-11T04:26:46.488Z,100723.28
2022-12-11T04:29:14.225Z,100730.50
2022-12-11T04:31:40.665Z,100726.03
2022-12-11T04:34:07.345Z,100719.72
2022-12-11T04:36:33.763Z,100725.44
2022-12-11T04:39:00.155Z,100717.59
2022-12-11T04:41:26.546Z,100721.63
2022-12-11T04:43:52.919Z,100719.50
2022-12-11T04:46:24.725Z,100713.59
2022-12-11T04:48:57.001Z,100715.25
2022-12-11T04:51:24.826Z,100719.94
2022-12-11T04:53:51.436Z,100721.19
2022-12-11T04:56:18.123Z,100721.19
2022-12-11T04:58:45.417Z,100718.22
2022-12-11T05:01:17.688Z,100714.19
2022-12-11T05:03:44.308Z,100713.13
2022-12-11T05:06:11.794Z,100720.72
2022-12-11T05:08:40.791Z,100708.72
2022-12-11T05:11:10.492Z,100706.81
2022-12-11T05:13:36.949Z,100703.84
2022-12-11T05:16:05.667Z,100698.38
2022-12-11T05:18:32.101Z,100700.28
2022-12-11T05:21:05.535Z,100696.91
2022-12-11T05:23:32.446Z,100698.38
2022-12-11T05:26:01.876Z,100692.88
2022-12-11T05:28:31.771Z,100689.09
2022-12-11T05:31:00.269Z,100699.44
2022-12-11T05:33:27.220Z,100684.66
2022-12-11T05:35:53.792Z,100687.16
2022-12-11T05:38:20.531Z,100693.09
2022-12-11T05:41:02.870Z,100689.28
2022-12-11T05:43:32.088Z,100693.50
2022-12-11T05:51:01.154Z,100696.06
2022-12-11T05:53:28.243Z,100687.41
2022-12-11T05:55:54.919Z,100688.66
2022-12-11T05:58:21.565Z,100685.72
2022-12-11T06:00:48.043Z,100685.28
2022-12-11T06:03:14.599Z,100687.38
2022-12-11T06:05:41.997Z,100692.03
2022-12-11T06:08:08.942Z,100689.72
2022-12-11T06:10:35.414Z,100686.13
2022-12-11T06:13:01.837Z,100681.06
2022-12-11T06:15:31.130Z,100683.16
2022-12-11T06:17:57.532Z,100683.81
2022-12-11T06:20:23.933Z,100682.75
2022-12-11T06:22:50.337Z,100676.84
2022-12-11T06:25:16.790Z,100681.28
2022-12-11T06:27:43.195Z,100680.66
2022-12-11T06:30:10.087Z,100684.84
2022-12-11T06:32:36.839Z,100673.22
2022-12-11T06:35:03.354Z,100694.81
2022-12-11T06:37:29.737Z,100696.47
2022-12-11T06:39:56.122Z,100689.91
2022-12-11T06:42:22.638Z,100689.72
2022-12-11T06:44:49.016Z,100692.25
2022-12-11T06:47:15.404Z,100689.91
2022-12-11T06:49:41.805Z,100697.72
2022-12-11T06:52:08.210Z,100696.69
2022-12-11T06:54:34.596Z,100692.47
2022-12-11T06:57:00.971Z,100691.19
2022-12-11T06:59:27.346Z,100692.03
2022-12-11T07:01:53.827Z,100700.69
2022-12-11T07:04:20.276Z,100696.06
2022-12-11T07:06:47.426Z,100700.91
2022-12-11T07:09:13.797Z,100690.78
2022-12-11T07:11:40.207Z,100698.16
2022-12-11T07:14:06.580Z,100696.50
2022-12-11T07:16:33.149Z,100694.16
2022-12-11T07:19:00.078Z,100693.72
2022-12-11T07:21:26.469Z,100686.34
2022-12-11T07:23:52.856Z,100690.56
2022-12-11T07:26:21.965Z,100696.25
2022-12-11T07:28:48.949Z,100692.47
2022-12-11T07:31:20.856Z,100698.81
2022-12-11T07:33:47.693Z,100696.28
2022-12-11T07:36:15.404Z,100695.44
2022-12-11T07:38:41.962Z,100701.34
2022-12-11T07:41:10.955Z,100708.50
2022-12-11T07:43:37.478Z,100715.91
2022-12-11T07:46:05.770Z,100711.06
2022-12-11T07:48:32.213Z,100710.22
2022-12-11T07:51:17.679Z,100706.41
2022-12-11T07:53:46.049Z,100710.63
2022-12-11T07:56:12.629Z,100717.78
2022-12-11T07:58:39.693Z,100715.66
2022-12-11T08:01:10.332Z,100716.91
2022-12-11T08:03:37.142Z,100719.66
2022-12-11T08:06:06.797Z,100710.78
2022-12-11T08:08:33.214Z,100716.31
2022-12-11T08:11:08.558Z,100712.50
2022-12-11T08:13:35.240Z,100713.97
2022-12-11T08:16:06.677Z,100709.97
2022-12-11T08:18:34.871Z,100716.94
2022-12-11T08:21:06.230Z,100708.09
2022-12-11T08:23:32.787Z,100724.78
2022-12-11T08:25:59.185Z,100714.84
2022-12-11T08:28:27.296Z,100720.13
2022-12-11T08:30:53.896Z,100725.00
2022-12-11T08:33:20.343Z,100717.38
2022-12-11T08:35:47.369Z,100715.69
2022-12-11T08:38:13.769Z,100710.63
2022-12-11T08:40:40.183Z,100722.66
2022-12-11T08:43:06.577Z,100718.00
2022-12-11T08:45:32.994Z,100722.88
2022-12-11T08:48:00.817Z,100707.44
2022-12-11T08:50:27.243Z,100710.84
2022-12-11T08:52:53.824Z,100705.75
2022-12-11T08:55:21.952Z,100707.41
2022-12-11T08:57:48.345Z,100712.72
2022-12-11T09:00:15.498Z,100707.88
2022-12-11T09:02:41.923Z,100714.00
2022-12-11T09:05:09.608Z,100714.84
2022-12-11T09:07:38.112Z,100721.41
2022-12-11T09:10:07.109Z,100727.94
2022-12-11T09:12:34.623Z,100725.63
2022-12-11T09:15:01.014Z,100723.72
2022-12-11T09:17:27.568Z,100724.78
2022-12-11T09:19:53.950Z,100731.94
2022-12-11T09:22:20.354Z,100729.38
2022-12-11T09:24:47.029Z,100724.34
2022-12-11T09:27:13.404Z,100735.75
2022-12-11T09:29:39.772Z,100717.78
2022-12-11T09:32:06.193Z,100721.38
2022-12-11T09:34:35.584Z,100710.19
2022-12-11T09:37:02.690Z,100714.84
2022-12-11T09:39:32.395Z,100722.88
2022-12-11T09:42:23.645Z,100707.25
2022-12-11T09:44:56.349Z,100716.09
2022-12-11T09:47:43.786Z,100711.47
2022-12-11T09:50:10.295Z,100703.47
2022-12-11T09:53:04.911Z,100704.06
2022-12-11T09:55:42.992Z,100704.28
2022-12-11T09:58:56.968Z,100698.78
2022-12-11T10:01:34.679Z,100700.69
2022-12-11T10:04:24.361Z,100690.97
2022-12-11T10:07:05.563Z,100692.03
2022-12-11T10:09:38.939Z,100680.84
2022-12-11T10:12:19.482Z,100682.56
2022-12-11T10:14:51.776Z,100681.88
2022-12-11T10:17:23.304Z,100677.47
2022-12-11T10:19:49.977Z,100672.81
2022-12-11T10:22:24.395Z,100684.66
2022-12-11T10:25:11.801Z,100677.69
2022-12-11T10:27:40.237Z,100677.69
2022-12-11T10:30:12.756Z,100674.72
2022-12-11T10:33:06.547Z,100679.38
2022-12-11T10:35:39.100Z,100678.94
2022-12-11T10:38:31.972Z,100670.94
2022-12-11T10:41:05.104Z,100660.97
2022-12-11T10:43:37.337Z,100663.53
2022-12-11T10:46:14.309Z,100659.94
2022-12-11T10:48:53.512Z,100671.53
2022-12-11T10:51:23.830Z,100663.31
2022-12-11T10:53:52.696Z,100663.31
2022-12-11T10:56:28.789Z,100667.13
2022-12-11T10:58:57.683Z,100658.25
2022-12-11T11:01:27.423Z,100656.53
2022-12-11T11:04:06.655Z,100653.81
2022-12-11T11:06:33.534Z,100656.13
2022-12-11T11:09:01.792Z,100650.44
2022-12-11T11:11:38.144Z,100650.66
2022-12-11T11:14:06.654Z,100641.38
2022-12-11T11:16:37.129Z,100636.91
2022-12-11T11:19:04.114Z,100640.50
2022-12-11T11:21:31.808Z,100637.56
2022-12-11T11:23:58.301Z,100636.72
2022-12-11T11:26:34.307Z,100629.09
2022-12-11T11:29:24.249Z,100624.69
2022-12-11T11:31:50.724Z,100624.88
2022-12-11T11:34:22.189Z,100616.44
2022-12-11T11:37:00.872Z,100617.72
2022-12-11T11:39:37.648Z,100615.59
2022-12-11T11:42:20.916Z,100609.25
2022-12-11T11:45:05.422Z,100609.03
2022-12-11T11:47:39.624Z,100620.63
2022-12-11T11:50:20.061Z,100618.09
2022-12-11T11:52:55.609Z,100607.72
2022-12-11T11:55:37.692Z,100608.38
2022-12-11T11:58:15.521Z,100606.28
2022-12-11T12:00:42.025Z,100610.28
2022-12-11T12:03:17.272Z,100606.28
2022-12-11T12:06:05.261Z,100609.63
2022-12-11T12:08:43.856Z,100600.94
2022-12-11T12:11:15.777Z,100600.50
2022-12-11T12:14:01.274Z,100599.88
2022-12-11T12:16:55.987Z,100604.97
2022-12-11T12:19:37.046Z,100596.91
2022-12-11T12:22:33.419Z,100594.59
2022-12-11T12:25:18.662Z,100599.88
2022-12-11T12:28:02.272Z,100598.19
2022-12-11T12:30:35.048Z,100606.84
2022-12-11T12:33:25.585Z,100597.31
2022-12-11T12:36:07.180Z,100591.19
2022-12-11T12:38:59.118Z,100587.19
2022-12-11T12:42:07.530Z,100588.66
2022-12-11T12:45:03.458Z,100592.50
2022-12-11T12:50:25.669Z,100598.16
2022-12-11T12:52:57.667Z,100577.84
2022-12-11T12:55:31.860Z,100583.34
2022-12-11T12:58:05.291Z,100592.69
2022-12-11T13:00:42.185Z,100587.16
2022-12-11T13:03:15.364Z,100577.59
2022-12-11T13:05:56.613Z,100567.22
2022-12-11T13:08:27.539Z,100575.91
2022-12-11T13:11:01.938Z,100582.50
2022-12-11T13:13:35.877Z,100574.69
2022-12-11T13:16:20.292Z,100574.41
2022-12-11T13:18:48.416Z,100580.34
2022-12-11T13:21:33.680Z,100575.28
2022-12-11T13:24:21.800Z,100568.06
2022-12-11T13:26:50.057Z,100570.81
2022-12-11T13:29:35.830Z,100563.78
2022-12-11T13:32:24.700Z,100563.78
2022-12-11T13:34:55.171Z,100558.34
2022-12-11T13:37:33.780Z,100567.44
2022-12-11T13:40:05.896Z,100563.66
2022-12-11T13:42:37.673Z,100556.63
2022-12-11T13:45:04.996Z,100555.59
2022-12-11T13:47:32.867Z,100556.22
2022-12-11T13:50:18.049Z,100554.56
2022-12-11T13:52:56.510Z,100553.25
2022-12-11T13:55:31.384Z,100553.06
2022-12-11T13:57:58.259Z,100556.22
2022-12-11T14:00:30.313Z,100561.72
2022-12-11T14:03:00.269Z,100557.41
2022-12-11T14:05:26.905Z,100552.78
2022-12-11T14:08:00.228Z,100563.78
2022-12-11T14:10:29.578Z,100553.38
2022-12-11T14:12:58.959Z,100556.56
2022-12-11T14:15:27.688Z,100556.56
2022-12-11T14:17:54.870Z,100553.00
2022-12-11T14:20:25.606Z,100553.63
2022-12-11T14:22:51.995Z,100560.47
2022-12-11T14:25:24.822Z,100561.31
2022-12-11T14:27:56.679Z,100556.63
2022-12-11T14:30:32.366Z,100564.44
2022-12-11T14:33:02.806Z,100560.00
2022-12-11T14:35:38.866Z,100565.91
2022-12-11T14:38:15.970Z,100563.34
2022-12-11T14:40:46.735Z,100564.22
2022-12-11T14:43:54.500Z,100565.31
2022-12-11T14:46:34.602Z,100563.94
2022-12-11T14:49:06.079Z,100564.00
2022-12-11T14:51:39.615Z,100555.34
2022-12-11T14:54:08.221Z,100560.94
2022-12-11T14:56:34.858Z,100561.97
2022-12-11T14:59:06.531Z,100552.63
2022-12-11T15:01:35.674Z,100545.69
2022-12-11T15:04:14.330Z,100549.72
2022-12-11T15:06:45.901Z,100548.28
2022-12-11T15:09:19.233Z,100536.88
2022-12-11T15:11:47.910Z,100544.88
2022-12-11T15:14:17.960Z,100552.50
2022-12-11T15:16:45.577Z,100559.06
2022-12-11T15:19:41.656Z,100568.34
2022-12-11T15:22:12.839Z,100565.16
2022-12-11T15:24:44.293Z,100571.50
2022-12-11T15:27:35.451Z,100562.56
2022-12-11T15:30:14.704Z,100562.63
2022-12-11T15:32:44.218Z,100561.78
2022-12-11T15:35:27.953Z,100561.34
2022-12-11T15:37:56.276Z,100561.16
2022-12-11T15:40:23.693Z,100565.00
2022-12-11T15:42:50.897Z,100568.59
2022-12-11T15:45:20.358Z,100567.31
2022-12-11T15:47:48.396Z,100557.13
2022-12-11T15:50:16.757Z,100561.16
2022-12-11T15:52:43.910Z,100556.97
2022-12-11T15:55:11.584Z,100553.97
2022-12-11T15:57:43.060Z,100570.66
2022-12-11T16:00:14.473Z,100561.19
2022-12-11T16:02:40.949Z,100566.47
2022-12-11T16:05:10.810Z,100562.22
2022-12-11T16:07:37.641Z,100568.56
2022-12-11T16:10:04.906Z,100563.97
2022-12-11T16:12:31.406Z,100565.22
2022-12-11T16:14:58.057Z,100560.13
2022-12-11T16:17:24.565Z,100557.22
2022-12-11T16:19:53.138Z,100563.09
2022-12-11T16:22:19.664Z,100560.34
2022-12-11T16:24:46.234Z,100567.13
2022-12-11T16:27:12.764Z,100558.66
2022-12-11T16:29:41.545Z,100556.72
2022-12-11T16:32:08.882Z,100562.03
2022-12-11T16:34:37.266Z,100556.50
2022-12-11T16:37:05.517Z,100564.97
2022-12-11T16:39:32.258Z,100559.69
2022-12-11T16:41:58.727Z,100558.19
2022-12-11T16:44:26.789Z,100558.41
2022-12-11T16:46:53.865Z,100560.06
2022-12-11T16:49:21.434Z,100565.56
2022-12-11T16:51:49.446Z,100565.56
2022-12-11T16:54:16.512Z,100562.81
2022-12-11T16:56:45.000Z,100559.03
2022-12-11T16:59:12.809Z,100558.41
2022-12-11T17:01:39.895Z,100555.84
2022-12-11T17:04:06.785Z,100553.97
2022-12-11T17:06:33.196Z,100565.22
2022-12-11T17:08:59.639Z,100557.38
2022-12-11T17:11:26.233Z,100561.97
2022-12-11T17:13:55.020Z,100570.47
2022-12-11T17:16:22.374Z,100566.84
2022-12-11T17:18:48.863Z,100567.31
2022-12-11T17:21:17.278Z,100568.78
2022-12-11T17:23:44.571Z,100563.06
2022-12-11T17:26:11.540Z,100567.31
2022-12-11T17:28:38.564Z,100564.97
2022-12-11T17:31:12.178Z,100564.34
2022-12-11T17:33:38.685Z,100551.22
2022-12-11T17:36:06.893Z,100555.44
2022-12-11T17:38:33.945Z,100560.16
2022-12-11T17:41:00.329Z,100552.06
2022-12-11T17:43:26.921Z,100551.66
2022-12-11T17:45:53.327Z,100549.84
2022-12-11T17:48:22.390Z,100548.13
2022-12-11T17:50:51.886Z,100545.63
2022-12-11T17:53:22.190Z,100547.69
2022-12-11T17:55:51.602Z,100550.00
2022-12-11T17:58:22.293Z,100546.19
2022-12-11T18:00:51.652Z,100537.47
2022-12-11T18:03:18.620Z,100544.31
2022-12-11T18:05:47.749Z,100546.56
2022-12-11T18:08:16.374Z,100544.94
2022-12-11T18:10:43.253Z,100553.78
2022-12-11T18:13:09.708Z,100558.25
2022-12-11T18:15:36.897Z,100553.19
2022-12-11T18:18:04.074Z,100550.03
2022-12-11T18:20:32.065Z,100549.41
2022-12-11T18:22:59.192Z,100551.72
2022-12-11T18:25:25.595Z,100555.50
2022-12-11T18:27:52.203Z,100556.56
2022-12-11T18:30:18.583Z,100551.75
2022-12-11T18:32:45.201Z,100554.31
2022-12-11T18:44:40.794Z,100556.16
2022-12-11T18:47:07.219Z,100549.03
2022-12-11T18:49:33.642Z,100547.97
2022-12-11T18:52:03.378Z,100550.50
2022-12-11T18:54:29.791Z,100545.22
2022-12-11T18:56:56.192Z,100549.84
2022-12-11T18:59:23.464Z,100547.09
2022-12-11T19:01:49.968Z,100544.09
2022-12-11T19:04:16.403Z,100546.91
2022-12-11T19:06:42.799Z,100537.81
2022-12-11T19:09:12.628Z,100538.47
2022-12-11T19:11:40.774Z,100543.75
2022-12-11T19:14:09.013Z,100543.94
2022-12-11T19:16:39.003Z,100541.81
2022-12-11T19:19:09.896Z,100546.25
2022-12-11T19:21:42.862Z,100550.69
2022-12-11T19:24:13.523Z,100545.81
2022-12-11T19:26:43.732Z,100546.66
2022-12-11T19:29:14.300Z,100545.84
2022-12-11T19:31:44.098Z,100544.16
2022-12-11T19:34:17.455Z,100546.25
2022-12-11T19:36:43.914Z,100545.44
2022-12-11T19:39:13.259Z,100553.50
2022-12-11T19:41:40.720Z,100549.66
2022-12-11T19:44:07.539Z,100548.41
2022-12-11T19:46:37.140Z,100551.56
2022-12-11T19:49:04.531Z,100551.56
2022-12-11T19:51:33.933Z,100557.31
2022-12-11T19:54:02.794Z,100557.69
2022-12-11T19:56:29.937Z,100549.88
2022-12-11T19:58:56.726Z,100550.94
2022-12-11T20:01:28.587Z,100548.41
2022-12-11T20:03:57.902Z,100546.91
2022-12-11T20:06:26.681Z,100542.28
2022-12-11T20:08:53.167Z,100542.31
2022-12-11T20:11:19.729Z,100539.13
2022-12-11T20:13:49.084Z,100541.06
2022-12-11T20:16:16.481Z,100539.34
2022-12-11T20:18:43.207Z,100538.91
2022-12-11T20:21:13.213Z,100535.53
2022-12-11T20:23:40.900Z,100538.31
2022-12-11T20:26:11.439Z,100535.31
2022-12-11T20:28:38.361Z,100537.41
2022-12-11T20:31:13.673Z,100538.69
2022-12-11T20:33:44.593Z,100544.81
2022-12-11T20:36:14.155Z,100536.56
2022-12-11T20:38:41.646Z,100537.88
2022-12-11T20:41:13.324Z,100536.19
2022-12-11T20:43:39.838Z,100541.22
2022-12-11T20:46:08.539Z,100538.44
2022-12-11T20:48:39.691Z,100541.44
2022-12-11T20:51:06.813Z,100536.53
2022-12-11T20:53:34.892Z,100539.97
2022-12-11T20:56:02.364Z,100541.50
2022-12-11T20:58:28.786Z,100539.16
2022-12-11T21:00:55.282Z,100538.75
2022-12-11T21:03:24.639Z,100546.75
2022-12-11T21:05:51.153Z,100533.66
2022-12-11T21:08:17.565Z,100537.22
2022-12-11T21:10:46.348Z,100544.63
2022-12-11T21:13:12.876Z,100543.13
2022-12-11T21:15:40.785Z,100545.88
2022-12-11T21:18:08.286Z,100547.97
2022-12-11T21:20:34.993Z,100546.91
2022-12-11T21:23:02.623Z,100541.16
2022-12-11T21:25:29.419Z,100540.53
2022-12-11T21:27:58.738Z,100537.59
2022-12-11T21:30:25.159Z,100530.19
2022-12-11T21:32:51.579Z,100536.31
2022-12-11T21:35:18.034Z,100538.84
2022-12-11T21:37:44.452Z,100541.59
2022-12-11T21:40:11.312Z,100544.59
2022-12-11T21:42:37.708Z,100537.41
2022-12-11T21:47:50.883Z,100536.31
2022-12-11T21:50:17.855Z,100540.72
2022-12-11T21:52:44.488Z,100542.88
2022-12-11T21:55:11.995Z,100543.06
2022-12-11T21:57:38.591Z,100536.94
2022-12-11T22:00:05.739Z,100539.25
2022-12-11T22:02:41.029Z,100534.88
2022-12-11T22:05:08.370Z,100528.94
2022-12-11T22:07:34.784Z,100526.44
2022-12-11T22:10:01.225Z,100523.44
2022-12-11T22:12:28.677Z,100526.63
2022-12-11T22:14:56.159Z,100527.22
2022-12-11T22:17:22.650Z,100525.13
2022-12-11T22:19:51.876Z,100530.41
2022-12-11T22:22:19.209Z,100538.22
2022-12-11T22:24:46.136Z,100531.25
2022-12-11T22:27:12.607Z,100529.53
2022-12-11T22:29:39.127Z,100527.88
2022-12-11T22:32:05.549Z,100525.31
2022-12-11T22:34:34.861Z,100526.59
2022-12-11T22:37:01.261Z,100526.84
2022-12-11T22:39:27.667Z,100525.34
2022-12-11T22:41:54.098Z,100528.53
2022-12-11T22:44:21.718Z,100524.31
2022-12-11T22:46:50.448Z,100523.91
2022-12-11T22:49:20.998Z,100516.78
2022-12-11T22:51:47.711Z,100522.25
2022-12-11T22:54:14.247Z,100519.69
2022-12-11T22:56:40.674Z,100521.19
2022-12-11T22:59:07.606Z,100521.41
2022-12-11T23:01:34.514Z,100516.13
2022-12-11T23:04:01.006Z,100521.59
2022-12-11T23:06:27.433Z,100520.13
2022-12-11T23:08:57.551Z,100522.28
2022-12-11T23:11:29.599Z,100525.19
2022-12-11T23:13:56.567Z,100521.19
2022-12-11T23:16:24.673Z,100524.34
2022-12-11T23:18:51.126Z,100539.56
2022-12-11T23:21:17.713Z,100533.81
2022-12-11T23:23:44.136Z,100544.97
2022-12-11T23:26:20.181Z,100549.44
2022-12-11T23:28:47.409Z,100546.25
2022-12-11T23:31:14.896Z,100540.56
2022-12-11T23:33:41.432Z,100541.00
2022-12-11T23:36:08.521Z,100543.13
2022-12-11T23:38:35.460Z,100541.00
2022-12-11T23:41:05.820Z,100530.66
2022-12-11T23:43:34.229Z,100525.59
2022-12-11T23:46:00.701Z,100541.63
2022-12-11T23:48:27.125Z,100529.41
2022-12-11T23:50:58.941Z,100527.53
2022-12-11T23:53:25.384Z,100525.41
2022-12-11T23:55:51.860Z,100526.47
2022-12-11T23:58:18.273Z,100528.38
